Time;durP1;ratioP1;P1;durP2;ratioP2;P2;SDS_P1;SDS_P2;PMS_P1;PMS_P2;Temp;Humidity;BMP_temperature;BMP_pressure;BME280_temperature;BME280_humidity;BME280_pressure;Samples;Min_cycle;Max_cycle;Signal;HPM_P1;HPM_P2
2022/11/10 00:00:35;;;;;;;14.70;2.97;;;;;;;;;;4953935;28;20016;-83
2022/11/10 00:03:02;;;;;;;13.93;2.45;;;;;;;;;;4948985;28;20023;-86
2022/11/10 00:05:28;;;;;;;12.68;2.63;;;;;;;;;;4954244;28;20061;-85
2022/11/10 00:07:54;;;;;;;12.20;2.25;;;;;;;;;;4959310;28;20031;-83
2022/11/10 00:10:20;;;;;;;9.73;3.10;;;;;;;;;;4953570;28;20054;-86
2022/11/10 00:12:46;;;;;;;18.65;3.80;;;;;;;;;;4943494;28;20023;-85
2022/11/10 00:17:57;;;;;;;29.73;9.00;;;;;;;;;;4965051;28;20042;-83
2022/11/10 00:20:23;;;;;;;18.85;2.88;;;;;;;;;;4955560;28;20091;-82
2022/11/10 00:22:49;;;;;;;14.70;2.88;;;;;;;;;;4940798;28;20364;-83
2022/11/10 00:25:15;;;;;;;14.23;2.97;;;;;;;;;;4972120;28;20038;-86
2022/11/10 00:27:41;;;;;;;15.90;3.38;;;;;;;;;;4935903;28;20035;-88
2022/11/10 00:30:07;;;;;;;22.25;3.63;;;;;;;;;;4964189;28;20116;-85
2022/11/10 00:32:33;;;;;;;22.48;4.72;;;;;;;;;;4951783;28;20036;-87
2022/11/10 00:34:59;;;;;;;20.98;4.40;;;;;;;;;;4957129;28;20078;-86
2022/11/10 00:37:25;;;;;;;25.55;4.07;;;;;;;;;;4958054;28;20480;-82
2022/11/10 00:39:51;;;;;;;22.52;3.80;;;;;;;;;;4960898;28;20484;-86
2022/11/10 00:42:17;;;;;;;21.20;4.30;;;;;;;;;;4948059;28;20027;-85
2022/11/10 00:44:43;;;;;;;20.00;4.38;;;;;;;;;;4953219;28;20039;-87
2022/11/10 00:47:09;;;;;;;20.77;4.10;;;;;;;;;;4937972;28;20047;-87
2022/11/10 00:49:35;;;;;;;23.27;4.05;;;;;;;;;;4952065;28;20031;-86
2022/11/10 00:52:02;;;;;;;17.98;3.53;;;;;;;;;;4957873;28;20095;-81
2022/11/10 00:54:28;;;;;;;31.73;4.72;;;;;;;;;;4956489;28;20043;-82
2022/11/10 00:56:54;;;;;;;17.02;3.50;;;;;;;;;;4950529;28;20138;-83
2022/11/10 00:59:20;;;;;;;18.95;3.92;;;;;;;;;;4954722;28;20387;-83
2022/11/10 01:01:46;;;;;;;16.15;3.33;;;;;;;;;;4954202;28;20491;-85
2022/11/10 01:04:12;;;;;;;18.75;3.92;;;;;;;;;;4956264;28;20035;-85
2022/11/10 01:06:38;;;;;;;17.02;4.07;;;;;;;;;;4959282;28;20054;-85
2022/11/10 01:09:04;;;;;;;24.75;4.35;;;;;;;;;;4963435;28;20507;-80
2022/11/10 01:11:30;;;;;;;17.70;4.50;;;;;;;;;;4954298;28;20043;-82
2022/11/10 01:13:56;;;;;;;29.35;5.90;;;;;;;;;;4953333;28;20042;-82
2022/11/10 01:16:24;;;;;;;23.60;3.88;;;;;;;;;;4959958;28;20027;-86
2022/11/10 01:18:52;;;;;;;25.92;4.53;;;;;;;;;;4955874;28;20035;-83
2022/11/10 01:21:18;;;;;;;22.95;4.28;;;;;;;;;;4955410;28;20035;-84
2022/11/10 01:23:44;;;;;;;18.65;3.40;;;;;;;;;;4950394;28;20086;-86
2022/11/10 01:26:10;;;;;;;25.40;7.18;;;;;;;;;;4957341;28;20046;-86
2022/11/10 01:28:36;;;;;;;28.98;4.88;;;;;;;;;;4952537;28;20568;-85
2022/11/10 01:31:07;;;;;;;19.33;3.97;;;;;;;;;;4956619;28;20027;-86
2022/11/10 01:33:33;;;;;;;14.25;3.92;;;;;;;;;;4953236;28;20160;-84
2022/11/10 01:36:00;;;;;;;23.50;4.00;;;;;;;;;;4946898;28;20476;-85
2022/11/10 01:38:27;;;;;;;24.00;4.55;;;;;;;;;;4957707;28;20031;-86
2022/11/10 01:40:53;;;;;;;20.35;4.63;;;;;;;;;;4961943;28;20035;-85
2022/11/10 01:43:19;;;;;;;21.17;4.65;;;;;;;;;;4958269;28;20032;-85
2022/11/10 01:45:48;;;;;;;17.00;5.55;;;;;;;;;;4952348;28;20086;-85
2022/11/10 01:48:37;;;;;;;26.00;4.35;;;;;;;;;;4949096;28;20044;-86
2022/11/10 01:51:06;;;;;;;27.33;5.05;;;;;;;;;;4955818;28;20039;-86
2022/11/10 01:53:34;;;;;;;21.50;4.82;;;;;;;;;;4955549;28;20385;-84
2022/11/10 01:56:01;;;;;;;30.27;5.53;;;;;;;;;;4954691;28;20055;-80
2022/11/10 01:58:30;;;;;;;20.27;4.72;;;;;;;;;;4972822;28;20091;-83
2022/11/10 02:00:56;;;;;;;18.60;4.65;;;;;;;;;;4964584;28;20046;-86
2022/11/10 02:03:22;;;;;;;27.30;5.05;;;;;;;;;;4959547;28;20039;-85
2022/11/10 02:05:49;;;;;;;27.90;4.32;;;;;;;;;;4962373;28;20047;-83
2022/11/10 02:08:17;;;;;;;20.60;4.88;;;;;;;;;;4953934;28;20035;-84
2022/11/10 02:10:43;;;;;;;18.85;4.40;;;;;;;;;;4944172;29;20062;-85
2022/11/10 02:13:10;;;;;;;21.50;4.45;;;;;;;;;;4957196;28;20031;-86
2022/11/10 02:15:37;;;;;;;15.60;4.80;;;;;;;;;;4966387;28;20047;-81
2022/11/10 02:18:03;;;;;;;25.95;4.53;;;;;;;;;;4955980;28;20504;-87
2022/11/10 02:20:29;;;;;;;26.77;4.05;;;;;;;;;;4958935;28;20045;-88
2022/11/10 02:22:55;;;;;;;22.15;4.72;;;;;;;;;;4950800;28;20030;-86
2022/11/10 02:25:22;;;;;;;20.38;4.60;;;;;;;;;;4943664;29;20059;-87
2022/11/10 02:27:48;;;;;;;29.23;5.47;;;;;;;;;;4947508;28;20038;-84
2022/11/10 02:30:15;;;;;;;17.42;4.05;;;;;;;;;;4953111;28;20106;-87
2022/11/10 02:32:41;;;;;;;26.20;4.60;;;;;;;;;;4935490;28;20050;-87
2022/11/10 02:35:07;;;;;;;25.95;3.70;;;;;;;;;;4959807;28;20035;-87
2022/11/10 02:37:33;;;;;;;19.48;4.68;;;;;;;;;;4954587;28;20484;-84
2022/11/10 02:39:59;;;;;;;21.10;4.03;;;;;;;;;;4936192;28;20035;-87
2022/11/10 02:42:25;;;;;;;19.25;4.60;;;;;;;;;;4954010;28;20040;-87
2022/11/10 02:44:52;;;;;;;24.77;3.60;;;;;;;;;;4939297;28;20050;-86
2022/11/10 02:47:18;;;;;;;20.38;4.65;;;;;;;;;;4954225;28;20396;-86
2022/11/10 02:49:44;;;;;;;19.85;3.78;;;;;;;;;;4949892;28;20053;-87
2022/11/10 02:52:10;;;;;;;18.23;4.03;;;;;;;;;;4935607;29;20031;-86
2022/11/10 02:54:36;;;;;;;22.50;3.58;;;;;;;;;;4951941;28;20047;-85
2022/11/10 02:57:02;;;;;;;22.02;4.50;;;;;;;;;;4947974;28;20153;-84
2022/11/10 02:59:28;;;;;;;19.40;4.28;;;;;;;;;;4959815;28;20023;-87
2022/11/10 03:01:54;;;;;;;21.88;3.90;;;;;;;;;;4957467;28;20050;-85
2022/11/10 03:04:20;;;;;;;20.55;3.72;;;;;;;;;;4950581;28;20633;-85
2022/11/10 03:06:46;;;;;;;22.92;4.32;;;;;;;;;;4955240;28;20387;-85
2022/11/10 03:09:12;;;;;;;20.92;3.55;;;;;;;;;;4952593;28;20389;-85
2022/11/10 03:11:38;;;;;;;18.58;3.95;;;;;;;;;;4936702;29;20438;-85
2022/11/10 03:14:04;;;;;;;30.35;3.47;;;;;;;;;;4955523;28;20031;-86
2022/11/10 03:16:30;;;;;;;32.65;5.18;;;;;;;;;;4961087;28;20118;-86
2022/11/10 03:18:56;;;;;;;18.40;3.63;;;;;;;;;;4952547;28;20039;-84
2022/11/10 03:21:23;;;;;;;22.15;5.78;;;;;;;;;;4950089;28;20252;-86
2022/11/10 03:23:49;;;;;;;19.98;5.10;;;;;;;;;;4952990;28;20042;-81
2022/11/10 03:26:15;;;;;;;23.60;4.07;;;;;;;;;;4968082;28;20107;-86
2022/11/10 03:28:41;;;;;;;24.77;4.78;;;;;;;;;;4954782;28;20062;-86
2022/11/10 03:31:07;;;;;;;14.82;3.58;;;;;;;;;;4955451;28;20444;-81
2022/11/10 03:33:34;;;;;;;24.63;3.22;;;;;;;;;;4965205;28;20566;-86
2022/11/10 03:36:00;;;;;;;22.58;3.90;;;;;;;;;;4940110;28;20035;-87
2022/11/10 03:38:26;;;;;;;27.35;6.18;;;;;;;;;;4941764;28;20064;-86
2022/11/10 03:40:52;;;;;;;26.63;4.78;;;;;;;;;;4957895;28;20022;-86
2022/11/10 03:43:18;;;;;;;20.88;4.53;;;;;;;;;;4970536;28;20507;-84
2022/11/10 03:45:44;;;;;;;30.02;5.15;;;;;;;;;;4951131;28;20039;-87
2022/11/10 03:48:10;;;;;;;27.77;6.68;;;;;;;;;;4957629;28;20087;-87
2022/11/10 03:50:36;;;;;;;27.20;3.95;;;;;;;;;;4949959;28;20067;-84
2022/11/10 03:53:03;;;;;;;23.02;4.82;;;;;;;;;;4952823;28;20493;-87
2022/11/10 03:55:29;;;;;;;22.45;5.50;;;;;;;;;;4933826;29;20046;-86
2022/11/10 03:57:55;;;;;;;27.75;5.43;;;;;;;;;;4954378;28;20086;-86
2022/11/10 04:00:21;;;;;;;28.27;6.32;;;;;;;;;;4951843;29;20027;-87
2022/11/10 04:02:47;;;;;;;20.38;4.18;;;;;;;;;;4949663;28;20428;-85
2022/11/10 04:10:43;;;;;;;28.58;9.93;;;;;;;;;;4943388;28;20034;-79
2022/11/10 04:15:54;;;;;;;24.35;4.43;;;;;;;;;;4953845;28;20095;-85
2022/11/10 04:18:23;;;;;;;30.65;5.15;;;;;;;;;;4957804;28;20102;-81
2022/11/10 04:20:50;;;;;;;20.58;4.05;;;;;;;;;;4953186;28;20023;-86
2022/11/10 04:23:25;;;;;;;31.52;4.97;;;;;;;;;;4957707;28;20035;-88
2022/11/10 04:28:37;;;;;;;33.97;5.75;;;;;;;;;;4956498;28;20095;-88
2022/11/10 04:31:03;;;;;;;26.33;4.43;;;;;;;;;;4962702;28;20039;-84
2022/11/10 04:33:29;;;;;;;34.85;4.40;;;;;;;;;;4956756;28;20361;-86
2022/11/10 04:35:55;;;;;;;26.45;4.53;;;;;;;;;;4944854;28;20362;-86
2022/11/10 04:38:21;;;;;;;20.17;4.65;;;;;;;;;;4949297;28;20035;-86
2022/11/10 04:40:47;;;;;;;23.83;4.35;;;;;;;;;;4977845;28;20027;-86
2022/11/10 04:43:13;;;;;;;26.25;5.18;;;;;;;;;;4960884;28;20043;-84
2022/11/10 04:45:39;;;;;;;25.48;5.22;;;;;;;;;;4973357;29;20031;-85
2022/11/10 04:48:05;;;;;;;28.75;4.82;;;;;;;;;;4954511;28;20031;-84
2022/11/10 04:50:31;;;;;;;39.33;4.85;;;;;;;;;;4973814;28;20103;-83
2022/11/10 04:52:57;;;;;;;32.33;5.43;;;;;;;;;;4978768;28;20024;-84
2022/11/10 04:55:23;;;;;;;32.13;4.85;;;;;;;;;;4952841;28;20035;-86
2022/11/10 04:57:49;;;;;;;25.33;4.47;;;;;;;;;;4951366;28;20060;-85
2022/11/10 05:00:16;;;;;;;27.70;4.40;;;;;;;;;;4927770;29;20054;-84
2022/11/10 05:02:43;;;;;;;30.55;5.35;;;;;;;;;;4926908;29;20481;-84
2022/11/10 05:05:10;;;;;;;25.45;5.05;;;;;;;;;;4929953;29;20071;-83
2022/11/10 05:07:36;;;;;;;26.90;4.63;;;;;;;;;;4936868;29;20079;-83
2022/11/10 05:10:03;;;;;;;26.67;4.85;;;;;;;;;;4930984;29;20189;-80
2022/11/10 05:12:29;;;;;;;27.30;4.72;;;;;;;;;;4936401;29;20046;-79
2022/11/10 05:14:55;;;;;;;25.33;4.50;;;;;;;;;;4939113;29;20043;-78
2022/11/10 05:17:21;;;;;;;23.55;3.95;;;;;;;;;;4934963;29;20032;-86
2022/11/10 05:19:47;;;;;;;30.63;4.88;;;;;;;;;;4942533;29;20023;-83
2022/11/10 05:22:14;;;;;;;32.17;5.00;;;;;;;;;;4932852;29;20088;-83
2022/11/10 05:24:40;;;;;;;25.45;5.38;;;;;;;;;;4938345;29;20126;-85
2022/11/10 05:27:07;;;;;;;30.92;5.57;;;;;;;;;;4938357;29;20113;-84
2022/11/10 05:29:33;;;;;;;24.55;3.95;;;;;;;;;;4923650;29;20126;-84
2022/11/10 05:31:59;;;;;;;29.90;4.22;;;;;;;;;;4934573;29;20024;-80
2022/11/10 05:34:25;;;;;;;30.75;4.97;;;;;;;;;;4935057;29;20091;-80
2022/11/10 05:36:51;;;;;;;34.05;4.80;;;;;;;;;;4926534;29;20027;-81
2022/11/10 05:39:17;;;;;;;21.60;3.75;;;;;;;;;;4935938;29;20385;-83
2022/11/10 05:41:43;;;;;;;25.70;4.30;;;;;;;;;;4943120;29;20492;-81
2022/11/10 05:44:09;;;;;;;22.58;4.00;;;;;;;;;;4934641;29;20043;-82
2022/11/10 05:46:35;;;;;;;29.15;4.18;;;;;;;;;;4936050;29;20050;-83
2022/11/10 05:49:01;;;;;;;31.42;4.38;;;;;;;;;;4933055;29;20533;-82
2022/11/10 05:51:28;;;;;;;32.97;5.05;;;;;;;;;;4922843;29;20503;-82
2022/11/10 05:53:54;;;;;;;24.65;4.30;;;;;;;;;;4928288;29;20042;-78
2022/11/10 05:56:20;;;;;;;38.60;5.55;;;;;;;;;;4935959;29;20023;-80
2022/11/10 05:58:46;;;;;;;29.13;5.20;;;;;;;;;;4945499;28;20051;-84
2022/11/10 06:01:12;;;;;;;34.63;6.05;;;;;;;;;;4953451;28;20039;-78
2022/11/10 06:03:38;;;;;;;39.67;6.38;;;;;;;;;;4952484;28;20035;-77
2022/11/10 06:06:04;;;;;;;36.15;5.03;;;;;;;;;;4944692;28;20044;-79
2022/11/10 06:08:30;;;;;;;27.60;4.25;;;;;;;;;;4947088;28;20027;-78
2022/11/10 06:10:56;;;;;;;32.55;4.95;;;;;;;;;;4948901;28;20031;-79
2022/11/10 06:13:22;;;;;;;29.67;4.65;;;;;;;;;;4958568;28;20034;-82
2022/11/10 06:15:49;;;;;;;25.08;4.57;;;;;;;;;;4950730;28;20039;-83
2022/11/10 06:18:15;;;;;;;26.83;5.35;;;;;;;;;;4951066;28;20032;-82
2022/11/10 06:20:41;;;;;;;40.33;5.90;;;;;;;;;;4952974;28;20088;-82
2022/11/10 06:23:11;;;;;;;26.70;4.75;;;;;;;;;;4939564;28;20053;-83
2022/11/10 06:25:38;;;;;;;34.50;5.03;;;;;;;;;;4946665;28;20476;-82
2022/11/10 06:28:04;;;;;;;34.28;5.50;;;;;;;;;;4961189;28;20039;-81
2022/11/10 06:30:31;;;;;;;31.42;5.95;;;;;;;;;;4954363;28;20027;-83
2022/11/10 06:32:57;;;;;;;35.08;5.10;;;;;;;;;;4957832;28;20357;-81
2022/11/10 06:35:23;;;;;;;37.75;7.25;;;;;;;;;;4965695;28;20392;-82
2022/11/10 06:38:03;;;;;;;30.95;4.70;;;;;;;;;;4957986;28;20046;-82
2022/11/10 06:40:29;;;;;;;34.53;5.65;;;;;;;;;;4958934;28;20043;-83
2022/11/10 06:42:56;;;;;;;24.70;4.63;;;;;;;;;;4957026;28;20037;-85
2022/11/10 06:45:22;;;;;;;30.05;6.25;;;;;;;;;;4962298;28;20476;-83
2022/11/10 06:47:48;;;;;;;23.30;5.13;;;;;;;;;;4953771;28;20448;-82
2022/11/10 06:50:14;;;;;;;30.90;5.85;;;;;;;;;;4950273;28;20394;-82
2022/11/10 06:52:40;;;;;;;31.75;4.65;;;;;;;;;;4956676;28;20063;-81
2022/11/10 06:55:06;;;;;;;35.88;5.38;;;;;;;;;;4945691;28;20073;-84
2022/11/10 06:57:39;;;;;;;26.52;5.50;;;;;;;;;;4953245;28;20058;-82
2022/11/10 07:00:05;;;;;;;32.65;6.75;;;;;;;;;;4958262;28;20411;-83
2022/11/10 07:02:33;;;;;;;33.53;6.25;;;;;;;;;;4944351;28;20035;-83
2022/11/10 07:04:59;;;;;;;29.50;5.80;;;;;;;;;;4949996;28;20050;-82
2022/11/10 07:07:25;;;;;;;33.05;5.75;;;;;;;;;;4955881;28;20039;-83
2022/11/10 07:09:51;;;;;;;22.33;4.38;;;;;;;;;;4951306;28;20117;-84
2022/11/10 07:12:18;;;;;;;29.25;5.55;;;;;;;;;;4948877;28;20159;-83
2022/11/10 07:14:44;;;;;;;29.63;5.15;;;;;;;;;;4948359;28;20083;-79
2022/11/10 07:17:10;;;;;;;28.20;4.25;;;;;;;;;;4953784;28;20036;-80
2022/11/10 07:19:36;;;;;;;26.30;4.82;;;;;;;;;;4945699;28;20051;-81
2022/11/10 07:22:02;;;;;;;30.73;5.25;;;;;;;;;;4956695;28;20039;-81
2022/11/10 07:24:29;;;;;;;29.35;5.80;;;;;;;;;;4947882;28;20449;-84
2022/11/10 07:26:58;;;;;;;27.63;4.97;;;;;;;;;;4953051;28;20106;-82
2022/11/10 07:29:25;;;;;;;27.75;5.63;;;;;;;;;;4934507;29;20397;-82
2022/11/10 07:31:51;;;;;;;26.05;5.28;;;;;;;;;;4953396;29;20511;-82
2022/11/10 07:34:17;;;;;;;34.97;4.30;;;;;;;;;;4952134;28;20031;-82
2022/11/10 07:36:43;;;;;;;33.15;4.93;;;;;;;;;;4950054;28;20086;-82
2022/11/10 07:39:10;;;;;;;27.40;4.93;;;;;;;;;;4961141;28;20031;-85
2022/11/10 07:41:36;;;;;;;24.80;4.50;;;;;;;;;;4915644;29;20164;-83
2022/11/10 07:44:02;;;;;;;41.22;6.22;;;;;;;;;;4932692;29;20091;-82
2022/11/10 07:46:29;;;;;;;39.88;4.95;;;;;;;;;;4929119;29;20401;-82
2022/11/10 07:48:55;;;;;;;33.70;6.93;;;;;;;;;;4940518;28;20035;-83
2022/11/10 07:51:21;;;;;;;32.45;5.00;;;;;;;;;;4952601;28;20107;-82
2022/11/10 07:53:47;;;;;;;31.55;6.55;;;;;;;;;;4948634;28;20105;-82
2022/11/10 07:56:13;;;;;;;34.83;5.53;;;;;;;;;;4935091;29;20043;-82
2022/11/10 07:58:39;;;;;;;33.42;5.15;;;;;;;;;;4952239;28;20059;-82
2022/11/10 08:01:05;;;;;;;30.88;5.13;;;;;;;;;;4955130;28;20038;-82
2022/11/10 08:03:31;;;;;;;34.55;5.22;;;;;;;;;;4951400;29;20031;-83
2022/11/10 08:05:58;;;;;;;30.63;5.65;;;;;;;;;;4922492;29;20400;-84
2022/11/10 08:08:24;;;;;;;34.90;6.50;;;;;;;;;;4938164;28;20442;-83
2022/11/10 08:10:50;;;;;;;38.45;5.25;;;;;;;;;;4946243;28;20027;-83
2022/11/10 08:13:16;;;;;;;31.85;6.65;;;;;;;;;;4962193;28;20035;-83
2022/11/10 08:15:42;;;;;;;28.70;4.95;;;;;;;;;;4959372;28;20086;-82
2022/11/10 08:18:14;;;;;;;32.22;6.03;;;;;;;;;;4952609;29;20027;-82
2022/11/10 08:20:41;;;;;;;;;;;;;;;;;;4945816;28;20032;-84
2022/11/10 08:23:07;;;;;;;26.98;5.75;;;;;;;;;;4935865;28;19966;-81
2022/11/10 08:25:34;;;;;;;34.00;5.60;;;;;;;;;;4940872;28;20027;-82
2022/11/10 08:28:02;;;;;;;33.53;5.03;;;;;;;;;;4931973;28;20095;-82
2022/11/10 08:30:28;;;;;;;30.52;4.10;;;;;;;;;;4963283;28;20536;-82
2022/11/10 08:32:55;;;;;;;25.60;4.43;;;;;;;;;;4951207;28;20031;-85
2022/11/10 08:35:22;;;;;;;33.63;5.45;;;;;;;;;;4939021;28;20062;-82
2022/11/10 08:37:48;;;;;;;24.65;6.28;;;;;;;;;;4943768;28;20114;-82
2022/11/10 08:40:14;;;;;;;22.85;4.15;;;;;;;;;;4935020;29;20031;-82
2022/11/10 08:42:40;;;;;;;30.05;6.43;;;;;;;;;;4954152;28;20039;-82
2022/11/10 08:45:07;;;;;;;32.78;6.43;;;;;;;;;;4933793;28;20047;-82
2022/11/10 08:47:33;;;;;;;33.58;4.55;;;;;;;;;;4962243;28;20045;-82
2022/11/10 08:49:59;;;;;;;30.65;4.72;;;;;;;;;;4934859;28;20348;-82
2022/11/10 08:52:25;;;;;;;29.08;6.03;;;;;;;;;;4958382;28;20031;-83
2022/11/10 08:54:51;;;;;;;28.33;5.47;;;;;;;;;;4967871;28;20070;-83
2022/11/10 08:57:17;;;;;;;23.70;5.07;;;;;;;;;;4947030;28;20480;-83
2022/11/10 08:59:43;;;;;;;33.10;5.40;;;;;;;;;;4965677;28;20043;-83
2022/11/10 09:02:11;;;;;;;33.30;6.18;;;;;;;;;;4955217;28;20047;-82
2022/11/10 09:04:37;;;;;;;26.17;6.45;;;;;;;;;;4952255;28;20102;-83
2022/11/10 09:07:03;;;;;;;19.60;4.93;;;;;;;;;;4954973;29;20066;-83
2022/11/10 09:09:29;;;;;;;21.80;5.15;;;;;;;;;;4952792;28;20039;-81
2022/11/10 09:11:55;;;;;;;31.15;5.20;;;;;;;;;;4964107;28;20032;-83
2022/11/10 09:14:21;;;;;;;26.00;4.43;;;;;;;;;;4959067;28;20051;-81
2022/11/10 09:16:49;;;;;;;30.23;5.30;;;;;;;;;;4929821;28;20102;-82
2022/11/10 09:19:17;;;;;;;33.50;6.88;;;;;;;;;;4928290;28;20031;-82
2022/11/10 09:21:50;;;;;;;29.73;4.65;;;;;;;;;;4938558;29;20417;-82
2022/11/10 09:24:16;;;;;;;28.98;6.13;;;;;;;;;;4927992;29;20092;-82
2022/11/10 09:26:46;;;;;;;29.08;5.38;;;;;;;;;;4934285;28;20066;-82
2022/11/10 09:29:12;;;;;;;29.00;5.90;;;;;;;;;;4947245;28;20042;-82
2022/11/10 09:31:38;;;;;;;22.83;6.00;;;;;;;;;;4962061;28;20050;-82
2022/11/10 09:34:05;;;;;;;29.92;5.50;;;;;;;;;;4949617;28;20050;-82
2022/11/10 09:36:31;;;;;;;20.75;5.05;;;;;;;;;;4954597;29;20429;-81
2022/11/10 09:38:57;;;;;;;35.22;5.18;;;;;;;;;;4966833;28;20058;-81
2022/11/10 09:41:23;;;;;;;27.30;5.72;;;;;;;;;;4956978;28;20035;-82
2022/11/10 09:44:08;;;;;;;30.67;4.95;;;;;;;;;;4966154;28;20027;-82
2022/11/10 09:46:42;;;;;;;29.73;4.43;;;;;;;;;;4945327;28;20036;-83
2022/11/10 09:49:26;;;;;;;27.70;5.13;;;;;;;;;;4939857;28;20035;-83
2022/11/10 09:51:53;;;;;;;26.02;5.43;;;;;;;;;;4948670;28;20027;-82
2022/11/10 09:54:30;;;;;;;22.83;4.05;;;;;;;;;;4958332;28;20078;-83
2022/11/10 09:56:59;;;;;;;28.67;4.93;;;;;;;;;;4963871;28;20102;-83
2022/11/10 09:59:31;;;;;;;31.00;5.45;;;;;;;;;;4960259;28;20139;-82
2022/11/10 10:02:00;;;;;;;25.83;4.22;;;;;;;;;;4940383;28;20110;-82
2022/11/10 10:04:26;;;;;;;28.70;4.65;;;;;;;;;;4970282;28;20027;-83
2022/11/10 10:06:58;;;;;;;22.83;4.13;;;;;;;;;;4965525;28;20046;-83
2022/11/10 10:09:42;;;;;;;19.40;3.80;;;;;;;;;;4954631;28;20019;-82
2022/11/10 10:12:08;;;;;;;23.30;4.00;;;;;;;;;;4957592;28;20035;-82
2022/11/10 10:14:45;;;;;;;24.00;5.13;;;;;;;;;;4962500;28;20110;-84
2022/11/10 10:17:17;;;;;;;26.98;7.43;;;;;;;;;;4950197;28;20440;-81
2022/11/10 10:19:56;;;;;;;25.98;4.43;;;;;;;;;;4953251;28;20368;-82
2022/11/10 10:22:29;;;;;;;21.35;4.03;;;;;;;;;;4952959;29;20495;-81
2022/11/10 10:24:58;;;;;;;23.20;4.20;;;;;;;;;;4954411;29;20031;-81
2022/11/10 10:27:26;;;;;;;22.17;4.60;;;;;;;;;;4962772;28;20043;-84
2022/11/10 10:29:53;;;;;;;27.13;4.35;;;;;;;;;;4939524;28;20156;-82
2022/11/10 10:32:21;;;;;;;28.95;4.30;;;;;;;;;;4955994;28;20512;-85
2022/11/10 10:34:47;;;;;;;30.35;4.53;;;;;;;;;;4953776;28;20481;-82
2022/11/10 10:37:21;;;;;;;23.98;4.53;;;;;;;;;;4953925;28;20040;-82
2022/11/10 10:39:49;;;;;;;28.80;5.40;;;;;;;;;;4953458;29;20079;-81
2022/11/10 10:42:23;;;;;;;28.05;4.93;;;;;;;;;;4954272;29;20035;-81
2022/11/10 10:45:11;;;;;;;26.08;5.35;;;;;;;;;;4959107;28;20037;-81
2022/11/10 10:47:38;;;;;;;29.98;5.82;;;;;;;;;;4955005;28;20035;-80
2022/11/10 10:50:16;;;;;;;27.25;4.40;;;;;;;;;;4953315;28;20106;-81
2022/11/10 10:52:42;;;;;;;33.15;5.05;;;;;;;;;;4936737;29;20136;-82
2022/11/10 10:55:08;;;;;;;22.00;4.13;;;;;;;;;;4963437;28;20035;-83
2022/11/10 10:57:34;;;;;;;26.95;4.18;;;;;;;;;;4971166;28;20034;-80
2022/11/10 11:00:19;;;;;;;18.92;4.53;;;;;;;;;;4968851;28;20047;-81
2022/11/10 11:03:00;;;;;;;22.52;5.40;;;;;;;;;;4934269;28;20395;-82
2022/11/10 11:05:26;;;;;;;24.33;4.35;;;;;;;;;;4959421;28;20193;-82
2022/11/10 11:07:55;;;;;;;23.33;4.85;;;;;;;;;;4951103;28;20055;-82
2022/11/10 11:10:23;;;;;;;21.23;5.10;;;;;;;;;;4950359;28;20037;-82
2022/11/10 11:12:49;;;;;;;25.75;5.68;;;;;;;;;;4956105;28;20035;-82
2022/11/10 11:15:29;;;;;;;25.27;5.20;;;;;;;;;;4957403;28;20039;-82
2022/11/10 11:17:59;;;;;;;27.85;4.00;;;;;;;;;;4937059;28;20028;-82
2022/11/10 11:20:30;;;;;;;31.48;5.32;;;;;;;;;;4944040;28;20060;-81
2022/11/10 11:22:58;;;;;;;22.65;3.65;;;;;;;;;;4943654;28;20035;-82
2022/11/10 11:25:42;;;;;;;18.90;3.92;;;;;;;;;;4949699;28;20383;-82
2022/11/10 11:28:17;;;;;;;24.75;4.07;;;;;;;;;;4950802;28;20495;-82
2022/11/10 11:31:18;;;;;;;22.60;4.18;;;;;;;;;;4934193;28;20031;-82
2022/11/10 11:33:44;;;;;;;28.38;4.20;;;;;;;;;;4916036;29;20036;-81
2022/11/10 11:36:17;;;;;;;25.75;4.28;;;;;;;;;;4935306;28;20146;-81
2022/11/10 11:38:43;;;;;;;22.35;5.10;;;;;;;;;;4953554;28;20022;-81
2022/11/10 11:41:15;;;;;;;20.05;4.10;;;;;;;;;;4953363;28;20039;-81
2022/11/10 11:43:54;;;;;;;26.65;3.65;;;;;;;;;;4948180;28;20053;-82
2022/11/10 11:46:27;;;;;;;17.85;3.47;;;;;;;;;;4947833;28;20031;-82
2022/11/10 11:49:29;;;;;;;24.27;4.38;;;;;;;;;;4952985;29;20087;-81
2022/11/10 11:52:00;;;;;;;22.65;3.55;;;;;;;;;;4891063;29;20052;-82
2022/11/10 11:54:28;;;;;;;25.65;4.22;;;;;;;;;;4943984;28;20141;-81
2022/11/10 11:56:59;;;;;;;28.83;5.63;;;;;;;;;;4972372;28;20138;-82
2022/11/10 11:59:47;;;;;;;24.48;3.15;;;;;;;;;;4948413;28;20112;-82
2022/11/10 12:02:23;;;;;;;20.30;4.18;;;;;;;;;;4952561;28;20027;-81
2022/11/10 12:04:55;;;;;;;22.75;3.28;;;;;;;;;;4949119;28;20027;-82
2022/11/10 12:07:34;;;;;;;24.95;3.70;;;;;;;;;;4948302;28;20093;-82
2022/11/10 12:10:10;;;;;;;30.92;4.00;;;;;;;;;;4954946;28;20027;-81
2022/11/10 12:12:36;;;;;;;18.30;3.97;;;;;;;;;;4953262;28;20416;-82
2022/11/10 12:15:02;;;;;;;28.65;6.38;;;;;;;;;;4948266;28;20477;-82
2022/11/10 12:17:31;;;;;;;32.00;8.30;;;;;;;;;;4952035;29;20028;-82
2022/11/10 12:20:24;;;;;;;25.05;6.13;;;;;;;;;;4951119;28;20456;-82
2022/11/10 12:22:59;;;;;;;18.42;4.22;;;;;;;;;;4956669;28;20051;-81
2022/11/10 12:25:25;;;;;;;23.10;4.55;;;;;;;;;;4951221;28;20042;-81
2022/11/10 12:27:55;;;;;;;18.08;2.85;;;;;;;;;;4953428;28;20036;-81
2022/11/10 12:30:21;;;;;;;24.08;3.72;;;;;;;;;;4929793;29;20034;-81
2022/11/10 12:32:51;;;;;;;22.63;4.30;;;;;;;;;;4951706;28;20037;-81
2022/11/10 12:35:22;;;;;;;15.10;3.67;;;;;;;;;;4962554;28;20035;-82
2022/11/10 12:37:51;;;;;;;14.82;3.17;;;;;;;;;;4949047;28;20089;-82
2022/11/10 12:40:19;;;;;;;28.20;4.40;;;;;;;;;;4970797;28;20026;-81
2022/11/10 12:42:46;;;;;;;29.25;5.68;;;;;;;;;;4957727;28;20031;-82
2022/11/10 12:45:20;;;;;;;23.08;2.97;;;;;;;;;;4954684;29;20629;-82
2022/11/10 12:47:47;;;;;;;21.10;3.85;;;;;;;;;;4950469;28;20491;-82
2022/11/10 12:50:19;;;;;;;26.20;4.22;;;;;;;;;;4951426;28;20039;-82
2022/11/10 12:52:49;;;;;;;18.67;3.13;;;;;;;;;;4956260;28;20024;-82
2022/11/10 12:55:15;;;;;;;25.35;4.30;;;;;;;;;;4956035;28;20038;-82
2022/11/10 12:57:43;;;;;;;20.02;3.85;;;;;;;;;;4957868;28;20058;-82
2022/11/10 13:00:30;;;;;;;24.42;3.35;;;;;;;;;;4960114;28;20051;-82
2022/11/10 13:02:57;;;;;;;24.65;5.10;;;;;;;;;;4962927;28;20053;-82
2022/11/10 13:05:23;;;;;;;20.25;3.30;;;;;;;;;;4971572;28;20026;-82
2022/11/10 13:07:51;;;;;;;27.98;3.90;;;;;;;;;;4958823;28;20106;-82
2022/11/10 13:10:26;;;;;;;26.85;4.22;;;;;;;;;;4956934;28;20019;-81
2022/11/10 13:13:04;;;;;;;29.15;4.65;;;;;;;;;;4954902;28;20030;-81
2022/11/10 13:15:36;;;;;;;16.23;3.25;;;;;;;;;;4950083;28;20477;-82
2022/11/10 13:18:03;;;;;;;33.83;5.03;;;;;;;;;;4954069;28;20043;-81
2022/11/10 13:20:38;;;;;;;29.48;4.18;;;;;;;;;;4946974;29;20063;-82
2022/11/10 13:23:23;;;;;;;24.13;4.85;;;;;;;;;;4955376;28;20035;-81
2022/11/10 13:25:53;;;;;;;20.98;3.75;;;;;;;;;;4954362;28;20118;-81
2022/11/10 13:28:38;;;;;;;26.05;5.38;;;;;;;;;;4943640;28;20528;-81
2022/11/10 13:31:22;;;;;;;22.30;3.90;;;;;;;;;;4957705;28;20089;-81
2022/11/10 13:34:04;;;;;;;24.00;3.35;;;;;;;;;;4954539;28;20031;-81
2022/11/10 13:36:43;;;;;;;15.98;3.25;;;;;;;;;;4963926;28;20065;-82
2022/11/10 13:39:26;;;;;;;19.50;3.90;;;;;;;;;;4953786;28;20035;-82
2022/11/10 13:42:07;;;;;;;18.70;3.22;;;;;;;;;;4947560;28;20078;-81
2022/11/10 13:44:46;;;;;;;25.88;3.78;;;;;;;;;;4959009;28;20417;-81
2022/11/10 13:47:33;;;;;;;22.70;4.03;;;;;;;;;;4954891;28;20468;-81
2022/11/10 13:49:59;;;;;;;33.75;4.05;;;;;;;;;;4946063;28;20039;-81
2022/11/10 13:52:35;;;;;;;24.83;4.13;;;;;;;;;;4959123;28;20054;-81
2022/11/10 13:55:04;;;;;;;20.90;3.95;;;;;;;;;;4963390;28;20428;-81
2022/11/10 13:57:37;;;;;;;27.02;4.75;;;;;;;;;;4933790;28;20039;-82
2022/11/10 14:00:23;;;;;;;20.15;3.88;;;;;;;;;;4937136;29;20054;-82
2022/11/10 14:03:16;;;;;;;23.42;3.90;;;;;;;;;;4946960;28;20495;-81
2022/11/10 14:06:00;;;;;;;25.50;3.65;;;;;;;;;;4939797;28;20043;-81
2022/11/10 14:08:28;;;;;;;21.17;3.17;;;;;;;;;;4951722;28;20592;-82
2022/11/10 14:10:59;;;;;;;21.67;3.67;;;;;;;;;;4947818;28;20070;-82
2022/11/10 14:13:41;;;;;;;24.58;5.65;;;;;;;;;;4937320;28;20031;-82
2022/11/10 14:16:16;;;;;;;16.35;3.70;;;;;;;;;;4962696;28;20428;-81
2022/11/10 14:19:03;;;;;;;16.10;3.38;;;;;;;;;;4948948;28;20564;-82
2022/11/10 14:21:32;;;;;;;27.38;3.45;;;;;;;;;;4949260;28;20321;-82
2022/11/10 14:24:03;;;;;;;23.90;4.00;;;;;;;;;;4951073;28;20146;-82
2022/11/10 14:26:33;;;;;;;35.53;4.68;;;;;;;;;;4959832;28;20038;-82
2022/11/10 14:29:18;;;;;;;18.27;4.05;;;;;;;;;;4958264;28;20035;-82
2022/11/10 14:31:44;;;;;;;22.33;3.83;;;;;;;;;;4936708;29;20035;-82
2022/11/10 14:34:14;;;;;;;25.08;3.63;;;;;;;;;;4954237;28;20039;-82
2022/11/10 14:36:49;;;;;;;21.90;3.20;;;;;;;;;;4949658;28;20865;-82
2022/11/10 14:39:15;;;;;;;27.95;3.42;;;;;;;;;;4920325;29;20046;-81
2022/11/10 14:41:46;;;;;;;13.70;3.45;;;;;;;;;;4965492;28;20126;-82
2022/11/10 14:44:14;;;;;;;21.88;3.10;;;;;;;;;;4960440;28;20110;-82
2022/11/10 14:46:40;;;;;;;18.42;3.15;;;;;;;;;;4941783;29;20127;-82
2022/11/10 14:49:09;;;;;;;17.92;3.10;;;;;;;;;;4956312;28;20043;-82
2022/11/10 14:51:35;;;;;;;27.85;3.92;;;;;;;;;;4960442;28;20467;-82
2022/11/10 14:54:01;;;;;;;20.08;3.10;;;;;;;;;;4959304;28;20031;-82